sensor_id;sensor_type;location;lat;lon;timestamp;P1;durP1;ratioP1;P2;durP2;ratioP2
73487;SDS011;61721;42.206;25.320;2023-05-15T00:01:32;8.52;;;5.20;;
73487;SDS011;61721;42.206;25.320;2023-05-15T00:04:08;7.45;;;5.55;;
73487;SDS011;61721;42.206;25.320;2023-05-15T00:06:44;6.93;;;4.93;;
73487;SDS011;61721;42.206;25.320;2023-05-15T00:09:24;8.43;;;5.10;;
73487;SDS011;61721;42.206;25.320;2023-05-15T00:14:52;7.30;;;5.57;;
73487;SDS011;61721;42.206;25.320;2023-05-15T00:17:28;7.28;;;5.15;;
73487;SDS011;61721;42.206;25.320;2023-05-15T00:20:05;7.85;;;5.20;;
73487;SDS011;61721;42.206;25.320;2023-05-15T00:22:41;7.25;;;4.93;;
73487;SDS011;61721;42.206;25.320;2023-05-15T00:25:20;11.13;;;5.53;;
73487;SDS011;61721;42.206;25.320;2023-05-15T00:27:56;9.75;;;5.38;;
73487;SDS011;61721;42.206;25.320;2023-05-15T00:30:32;14.20;;;5.82;;
73487;SDS011;61721;42.206;25.320;2023-05-15T00:33:08;8.60;;;5.90;;
73487;SDS011;61721;42.206;25.320;2023-05-15T00:35:44;8.00;;;5.90;;
73487;SDS011;61721;42.206;25.320;2023-05-15T00:38:20;8.15;;;5.10;;
73487;SDS011;61721;42.206;25.320;2023-05-15T00:40:59;10.10;;;6.18;;
73487;SDS011;61721;42.206;25.320;2023-05-15T00:43:35;9.38;;;5.85;;
73487;SDS011;61721;42.206;25.320;2023-05-15T00:46:14;7.60;;;5.38;;
73487;SDS011;61721;42.206;25.320;2023-05-15T00:48:50;7.85;;;5.63;;
73487;SDS011;61721;42.206;25.320;2023-05-15T00:51:27;8.18;;;5.63;;
73487;SDS011;61721;42.206;25.320;2023-05-15T00:54:03;9.68;;;5.78;;
73487;SDS011;61721;42.206;25.320;2023-05-15T00:56:44;6.70;;;4.95;;
73487;SDS011;61721;42.206;25.320;2023-05-15T00:59:22;6.90;;;5.32;;
73487;SDS011;61721;42.206;25.320;2023-05-15T01:02:01;9.80;;;5.30;;
73487;SDS011;61721;42.206;25.320;2023-05-15T01:04:37;8.13;;;5.70;;
73487;SDS011;61721;42.206;25.320;2023-05-15T01:07:14;7.38;;;5.07;;
73487;SDS011;61721;42.206;25.320;2023-05-15T01:09:50;8.02;;;5.57;;
73487;SDS011;61721;42.206;25.320;2023-05-15T01:12:30;9.52;;;5.60;;
73487;SDS011;61721;42.206;25.320;2023-05-15T01:15:09;7.00;;;5.28;;
73487;SDS011;61721;42.206;25.320;2023-05-15T01:17:45;10.90;;;5.72;;
73487;SDS011;61721;42.206;25.320;2023-05-15T01:20:21;9.25;;;5.10;;
73487;SDS011;61721;42.206;25.320;2023-05-15T01:23:00;7.57;;;4.90;;
73487;SDS011;61721;42.206;25.320;2023-05-15T01:29:02;9.15;;;5.40;;
73487;SDS011;61721;42.206;25.320;2023-05-15T01:31:42;7.75;;;4.93;;
73487;SDS011;61721;42.206;25.320;2023-05-15T01:34:26;7.07;;;5.25;;
73487;SDS011;61721;42.206;25.320;2023-05-15T01:37:06;8.27;;;5.20;;
73487;SDS011;61721;42.206;25.320;2023-05-15T01:39:45;7.15;;;5.50;;
73487;SDS011;61721;42.206;25.320;2023-05-15T01:42:29;9.93;;;5.13;;
73487;SDS011;61721;42.206;25.320;2023-05-15T01:45:10;8.45;;;5.43;;
73487;SDS011;61721;42.206;25.320;2023-05-15T01:47:48;8.77;;;5.50;;
73487;SDS011;61721;42.206;25.320;2023-05-15T01:50:35;8.85;;;5.18;;
73487;SDS011;61721;42.206;25.320;2023-05-15T01:53:13;8.95;;;5.43;;
73487;SDS011;61721;42.206;25.320;2023-05-15T01:55:50;7.65;;;4.88;;
73487;SDS011;61721;42.206;25.320;2023-05-15T01:58:27;11.70;;;5.60;;
73487;SDS011;61721;42.206;25.320;2023-05-15T02:01:08;8.43;;;5.32;;
73487;SDS011;61721;42.206;25.320;2023-05-15T02:03:45;8.07;;;5.18;;
73487;SDS011;61721;42.206;25.320;2023-05-15T02:06:22;8.65;;;5.55;;
73487;SDS011;61721;42.206;25.320;2023-05-15T02:09:00;9.48;;;5.30;;
73487;SDS011;61721;42.206;25.320;2023-05-15T02:11:37;8.55;;;5.03;;
73487;SDS011;61721;42.206;25.320;2023-05-15T02:14:13;11.13;;;5.57;;
73487;SDS011;61721;42.206;25.320;2023-05-15T02:16:53;8.98;;;5.20;;
73487;SDS011;61721;42.206;25.320;2023-05-15T02:19:30;8.57;;;5.50;;
73487;SDS011;61721;42.206;25.320;2023-05-15T02:22:06;7.85;;;5.40;;
73487;SDS011;61721;42.206;25.320;2023-05-15T02:24:44;9.45;;;5.10;;
73487;SDS011;61721;42.206;25.320;2023-05-15T02:27:21;11.80;;;5.20;;
73487;SDS011;61721;42.206;25.320;2023-05-15T02:30:10;11.43;;;5.45;;
73487;SDS011;61721;42.206;25.320;2023-05-15T02:33:01;8.75;;;5.47;;
73487;SDS011;61721;42.206;25.320;2023-05-15T02:35:47;8.70;;;5.03;;
73487;SDS011;61721;42.206;25.320;2023-05-15T02:38:27;9.23;;;5.68;;
73487;SDS011;61721;42.206;25.320;2023-05-15T02:41:19;9.85;;;5.45;;
73487;SDS011;61721;42.206;25.320;2023-05-15T02:43:57;12.13;;;5.60;;
73487;SDS011;61721;42.206;25.320;2023-05-15T02:46:35;8.82;;;5.07;;
73487;SDS011;61721;42.206;25.320;2023-05-15T02:49:15;12.10;;;5.60;;
73487;SDS011;61721;42.206;25.320;2023-05-15T02:51:58;7.90;;;5.32;;
73487;SDS011;61721;42.206;25.320;2023-05-15T02:54:34;7.53;;;5.20;;
73487;SDS011;61721;42.206;25.320;2023-05-15T02:57:10;8.82;;;5.00;;
73487;SDS011;61721;42.206;25.320;2023-05-15T02:59:46;8.85;;;5.13;;
73487;SDS011;61721;42.206;25.320;2023-05-15T03:02:22;10.35;;;5.50;;
73487;SDS011;61721;42.206;25.320;2023-05-15T03:05:01;8.07;;;5.75;;
73487;SDS011;61721;42.206;25.320;2023-05-15T03:07:37;9.98;;;6.13;;
73487;SDS011;61721;42.206;25.320;2023-05-15T03:10:13;8.88;;;6.00;;
73487;SDS011;61721;42.206;25.320;2023-05-15T03:12:53;8.25;;;5.28;;
73487;SDS011;61721;42.206;25.320;2023-05-15T03:15:32;7.47;;;5.80;;
73487;SDS011;61721;42.206;25.320;2023-05-15T03:18:07;10.30;;;5.28;;
73487;SDS011;61721;42.206;25.320;2023-05-15T03:20:46;7.43;;;5.18;;
73487;SDS011;61721;42.206;25.320;2023-05-15T03:23:23;13.60;;;5.55;;
73487;SDS011;61721;42.206;25.320;2023-05-15T03:26:00;6.65;;;4.63;;
73487;SDS011;61721;42.206;25.320;2023-05-15T03:28:35;10.73;;;5.35;;
73487;SDS011;61721;42.206;25.320;2023-05-15T03:31:11;7.78;;;5.75;;
73487;SDS011;61721;42.206;25.320;2023-05-15T03:33:47;7.80;;;5.78;;
73487;SDS011;61721;42.206;25.320;2023-05-15T03:36:26;10.75;;;5.38;;
73487;SDS011;61721;42.206;25.320;2023-05-15T03:39:02;10.07;;;5.40;;
73487;SDS011;61721;42.206;25.320;2023-05-15T03:41:39;8.88;;;5.65;;
73487;SDS011;61721;42.206;25.320;2023-05-15T03:44:14;9.52;;;5.53;;
73487;SDS011;61721;42.206;25.320;2023-05-15T03:46:50;9.02;;;5.70;;
73487;SDS011;61721;42.206;25.320;2023-05-15T03:49:34;7.63;;;5.57;;
73487;SDS011;61721;42.206;25.320;2023-05-15T03:52:13;9.55;;;5.50;;
73487;SDS011;61721;42.206;25.320;2023-05-15T03:54:49;8.27;;;5.60;;
73487;SDS011;61721;42.206;25.320;2023-05-15T03:59:57;10.57;;;6.10;;
73487;SDS011;61721;42.206;25.320;2023-05-15T04:02:41;9.68;;;5.90;;
73487;SDS011;61721;42.206;25.320;2023-05-15T04:05:18;8.00;;;5.18;;
73487;SDS011;61721;42.206;25.320;2023-05-15T04:07:57;10.15;;;5.05;;
73487;SDS011;61721;42.206;25.320;2023-05-15T04:10:33;8.02;;;4.95;;
73487;SDS011;61721;42.206;25.320;2023-05-15T04:13:09;9.13;;;5.15;;
73487;SDS011;61721;42.206;25.320;2023-05-15T04:15:45;8.32;;;4.95;;
73487;SDS011;61721;42.206;25.320;2023-05-15T04:18:22;7.40;;;4.63;;
73487;SDS011;61721;42.206;25.320;2023-05-15T04:20:58;7.65;;;5.10;;
73487;SDS011;61721;42.206;25.320;2023-05-15T04:23:37;8.85;;;5.03;;
73487;SDS011;61721;42.206;25.320;2023-05-15T04:26:13;6.13;;;4.22;;
73487;SDS011;61721;42.206;25.320;2023-05-15T04:28:49;9.07;;;5.40;;
73487;SDS011;61721;42.206;25.320;2023-05-15T04:31:27;7.07;;;5.10;;
73487;SDS011;61721;42.206;25.320;2023-05-15T04:34:03;7.28;;;4.38;;
73487;SDS011;61721;42.206;25.320;2023-05-15T04:36:39;10.50;;;5.05;;
73487;SDS011;61721;42.206;25.320;2023-05-15T04:39:19;8.90;;;4.68;;
73487;SDS011;61721;42.206;25.320;2023-05-15T04:41:56;11.50;;;5.82;;
73487;SDS011;61721;42.206;25.320;2023-05-15T04:44:36;9.02;;;5.22;;
73487;SDS011;61721;42.206;25.320;2023-05-15T04:47:12;7.97;;;5.40;;
73487;SDS011;61721;42.206;25.320;2023-05-15T04:49:48;8.15;;;5.13;;
73487;SDS011;61721;42.206;25.320;2023-05-15T04:52:24;8.80;;;4.85;;
73487;SDS011;61721;42.206;25.320;2023-05-15T04:55:04;8.85;;;5.32;;
73487;SDS011;61721;42.206;25.320;2023-05-15T04:57:41;7.43;;;4.47;;
73487;SDS011;61721;42.206;25.320;2023-05-15T05:00:25;9.25;;;4.68;;
73487;SDS011;61721;42.206;25.320;2023-05-15T05:03:01;8.07;;;4.70;;
73487;SDS011;61721;42.206;25.320;2023-05-15T05:05:38;8.25;;;4.47;;
73487;SDS011;61721;42.206;25.320;2023-05-15T05:08:15;6.57;;;4.00;;
73487;SDS011;61721;42.206;25.320;2023-05-15T05:14:12;7.72;;;4.22;;
73487;SDS011;61721;42.206;25.320;2023-05-15T05:16:48;11.55;;;4.20;;
73487;SDS011;61721;42.206;25.320;2023-05-15T05:19:24;7.70;;;4.30;;
73487;SDS011;61721;42.206;25.320;2023-05-15T05:22:00;9.07;;;4.10;;
73487;SDS011;61721;42.206;25.320;2023-05-15T05:24:36;9.00;;;5.07;;
73487;SDS011;61721;42.206;25.320;2023-05-15T05:27:12;7.90;;;5.28;;
73487;SDS011;61721;42.206;25.320;2023-05-15T05:29:51;7.70;;;4.88;;
73487;SDS011;61721;42.206;25.320;2023-05-15T05:32:28;9.82;;;4.70;;
73487;SDS011;61721;42.206;25.320;2023-05-15T05:35:06;9.30;;;5.05;;
73487;SDS011;61721;42.206;25.320;2023-05-15T05:40:34;8.02;;;5.03;;
73487;SDS011;61721;42.206;25.320;2023-05-15T05:43:09;7.72;;;4.68;;
73487;SDS011;61721;42.206;25.320;2023-05-15T05:45:48;7.88;;;4.72;;
73487;SDS011;61721;42.206;25.320;2023-05-15T05:48:24;10.57;;;5.60;;
73487;SDS011;61721;42.206;25.320;2023-05-15T05:51:02;8.43;;;5.22;;
73487;SDS011;61721;42.206;25.320;2023-05-15T05:53:37;7.57;;;5.30;;
73487;SDS011;61721;42.206;25.320;2023-05-15T05:56:14;8.35;;;4.45;;
73487;SDS011;61721;42.206;25.320;2023-05-15T05:58:50;7.38;;;4.90;;
73487;SDS011;61721;42.206;25.320;2023-05-15T06:04:04;7.63;;;5.30;;
73487;SDS011;61721;42.206;25.320;2023-05-15T06:06:40;7.43;;;4.70;;
73487;SDS011;61721;42.206;25.320;2023-05-15T06:09:16;7.40;;;4.18;;
73487;SDS011;61721;42.206;25.320;2023-05-15T06:11:52;8.07;;;5.00;;
73487;SDS011;61721;42.206;25.320;2023-05-15T06:14:28;9.90;;;5.65;;
73487;SDS011;61721;42.206;25.320;2023-05-15T06:17:07;8.85;;;4.75;;
73487;SDS011;61721;42.206;25.320;2023-05-15T06:19:43;9.15;;;4.72;;
73487;SDS011;61721;42.206;25.320;2023-05-15T06:22:19;8.52;;;4.60;;
73487;SDS011;61721;42.206;25.320;2023-05-15T06:24:55;8.73;;;4.88;;
73487;SDS011;61721;42.206;25.320;2023-05-15T06:30:11;7.45;;;4.82;;
73487;SDS011;61721;42.206;25.320;2023-05-15T06:32:50;10.82;;;5.13;;
73487;SDS011;61721;42.206;25.320;2023-05-15T06:35:26;9.52;;;4.70;;
73487;SDS011;61721;42.206;25.320;2023-05-15T06:38:03;8.93;;;4.95;;
73487;SDS011;61721;42.206;25.320;2023-05-15T06:40:38;8.18;;;4.68;;
73487;SDS011;61721;42.206;25.320;2023-05-15T06:43:15;8.15;;;4.30;;
73487;SDS011;61721;42.206;25.320;2023-05-15T06:45:50;10.77;;;4.97;;
73487;SDS011;61721;42.206;25.320;2023-05-15T06:48:29;8.43;;;5.13;;
73487;SDS011;61721;42.206;25.320;2023-05-15T06:51:05;7.22;;;5.00;;
73487;SDS011;61721;42.206;25.320;2023-05-15T06:53:42;8.85;;;4.85;;
73487;SDS011;61721;42.206;25.320;2023-05-15T06:56:17;7.35;;;4.63;;
73487;SDS011;61721;42.206;25.320;2023-05-15T06:58:53;7.38;;;4.85;;
73487;SDS011;61721;42.206;25.320;2023-05-15T07:01:29;7.03;;;4.75;;
73487;SDS011;61721;42.206;25.320;2023-05-15T07:04:16;10.25;;;4.82;;
73487;SDS011;61721;42.206;25.320;2023-05-15T07:06:52;7.95;;;5.25;;
73487;SDS011;61721;42.206;25.320;2023-05-15T07:09:28;12.38;;;5.63;;
73487;SDS011;61721;42.206;25.320;2023-05-15T07:12:06;6.75;;;4.38;;
73487;SDS011;61721;42.206;25.320;2023-05-15T07:14:43;7.53;;;4.95;;
73487;SDS011;61721;42.206;25.320;2023-05-15T07:17:19;10.38;;;5.65;;
73487;SDS011;61721;42.206;25.320;2023-05-15T07:19:58;7.30;;;4.82;;
73487;SDS011;61721;42.206;25.320;2023-05-15T07:22:37;11.52;;;5.22;;
73487;SDS011;61721;42.206;25.320;2023-05-15T07:25:14;8.45;;;4.82;;
73487;SDS011;61721;42.206;25.320;2023-05-15T07:27:58;9.60;;;4.80;;
73487;SDS011;61721;42.206;25.320;2023-05-15T07:30:40;9.45;;;5.55;;
73487;SDS011;61721;42.206;25.320;2023-05-15T07:33:16;9.23;;;5.63;;
73487;SDS011;61721;42.206;25.320;2023-05-15T07:35:54;9.73;;;4.70;;
73487;SDS011;61721;42.206;25.320;2023-05-15T07:38:30;7.55;;;5.00;;
73487;SDS011;61721;42.206;25.320;2023-05-15T07:41:07;9.25;;;4.68;;
73487;SDS011;61721;42.206;25.320;2023-05-15T07:46:47;9.93;;;5.15;;
73487;SDS011;61721;42.206;25.320;2023-05-15T07:49:23;13.23;;;5.60;;
73487;SDS011;61721;42.206;25.320;2023-05-15T07:52:02;9.48;;;5.75;;
73487;SDS011;61721;42.206;25.320;2023-05-15T07:54:38;9.95;;;4.88;;
73487;SDS011;61721;42.206;25.320;2023-05-15T07:57:15;7.82;;;5.40;;
73487;SDS011;61721;42.206;25.320;2023-05-15T07:59:51;7.30;;;4.57;;
73487;SDS011;61721;42.206;25.320;2023-05-15T08:02:35;9.77;;;5.40;;
73487;SDS011;61721;42.206;25.320;2023-05-15T08:05:10;11.55;;;5.13;;
73487;SDS011;61721;42.206;25.320;2023-05-15T08:07:51;9.30;;;4.95;;
73487;SDS011;61721;42.206;25.320;2023-05-15T08:10:26;8.95;;;4.68;;
73487;SDS011;61721;42.206;25.320;2023-05-15T08:13:02;7.05;;;4.63;;
73487;SDS011;61721;42.206;25.320;2023-05-15T08:15:38;8.45;;;5.10;;
73487;SDS011;61721;42.206;25.320;2023-05-15T08:18:14;8.32;;;5.22;;
73487;SDS011;61721;42.206;25.320;2023-05-15T08:20:51;10.77;;;5.30;;
73487;SDS011;61721;42.206;25.320;2023-05-15T08:23:29;9.02;;;5.50;;
73487;SDS011;61721;42.206;25.320;2023-05-15T08:26:06;7.75;;;5.40;;
73487;SDS011;61721;42.206;25.320;2023-05-15T08:28:42;7.75;;;4.72;;
73487;SDS011;61721;42.206;25.320;2023-05-15T08:31:18;8.15;;;4.95;;
73487;SDS011;61721;42.206;25.320;2023-05-15T08:33:54;9.20;;;5.50;;
73487;SDS011;61721;42.206;25.320;2023-05-15T08:36:29;7.53;;;5.32;;
73487;SDS011;61721;42.206;25.320;2023-05-15T08:39:10;8.95;;;5.05;;
73487;SDS011;61721;42.206;25.320;2023-05-15T08:41:47;7.13;;;5.00;;
73487;SDS011;61721;42.206;25.320;2023-05-15T08:44:27;9.18;;;5.07;;
73487;SDS011;61721;42.206;25.320;2023-05-15T08:47:03;7.45;;;4.95;;
73487;SDS011;61721;42.206;25.320;2023-05-15T08:49:42;6.70;;;4.45;;
73487;SDS011;61721;42.206;25.320;2023-05-15T08:52:25;7.65;;;4.57;;
73487;SDS011;61721;42.206;25.320;2023-05-15T08:55:06;8.05;;;5.00;;
73487;SDS011;61721;42.206;25.320;2023-05-15T08:57:43;7.30;;;5.07;;
73487;SDS011;61721;42.206;25.320;2023-05-15T09:00:25;7.68;;;5.00;;
73487;SDS011;61721;42.206;25.320;2023-05-15T09:03:00;8.20;;;4.75;;
73487;SDS011;61721;42.206;25.320;2023-05-15T09:05:38;8.55;;;4.90;;
73487;SDS011;61721;42.206;25.320;2023-05-15T09:08:15;7.78;;;4.75;;
73487;SDS011;61721;42.206;25.320;2023-05-15T09:10:55;6.82;;;4.32;;
73487;SDS011;61721;42.206;25.320;2023-05-15T09:13:35;9.13;;;4.88;;
73487;SDS011;61721;42.206;25.320;2023-05-15T09:16:11;11.52;;;5.18;;
73487;SDS011;61721;42.206;25.320;2023-05-15T09:18:51;7.60;;;4.65;;
73487;SDS011;61721;42.206;25.320;2023-05-15T09:21:32;11.40;;;4.82;;
73487;SDS011;61721;42.206;25.320;2023-05-15T09:24:16;8.95;;;4.93;;
73487;SDS011;61721;42.206;25.320;2023-05-15T09:27:04;7.10;;;4.97;;
73487;SDS011;61721;42.206;25.320;2023-05-15T09:29:41;8.00;;;4.70;;
73487;SDS011;61721;42.206;25.320;2023-05-15T09:32:18;9.55;;;5.40;;
73487;SDS011;61721;42.206;25.320;2023-05-15T09:34:55;9.30;;;5.20;;
73487;SDS011;61721;42.206;25.320;2023-05-15T09:37:32;7.88;;;4.75;;
73487;SDS011;61721;42.206;25.320;2023-05-15T09:40:09;7.68;;;4.60;;
73487;SDS011;61721;42.206;25.320;2023-05-15T09:42:52;7.53;;;4.50;;
73487;SDS011;61721;42.206;25.320;2023-05-15T09:45:29;9.13;;;4.30;;
73487;SDS011;61721;42.206;25.320;2023-05-15T09:48:05;6.95;;;4.32;;
73487;SDS011;61721;42.206;25.320;2023-05-15T09:50:42;7.68;;;4.80;;
73487;SDS011;61721;42.206;25.320;2023-05-15T09:53:19;7.50;;;4.80;;
73487;SDS011;61721;42.206;25.320;2023-05-15T09:55:56;8.95;;;4.70;;
73487;SDS011;61721;42.206;25.320;2023-05-15T09:58:35;6.45;;;4.07;;
73487;SDS011;61721;42.206;25.320;2023-05-15T10:01:12;7.80;;;3.83;;
73487;SDS011;61721;42.206;25.320;2023-05-15T10:03:57;6.68;;;4.30;;
73487;SDS011;61721;42.206;25.320;2023-05-15T10:06:34;7.03;;;4.57;;
73487;SDS011;61721;42.206;25.320;2023-05-15T10:09:11;10.00;;;4.75;;
73487;SDS011;61721;42.206;25.320;2023-05-15T10:11:49;7.05;;;4.18;;
73487;SDS011;61721;42.206;25.320;2023-05-15T10:14:29;7.70;;;4.97;;
73487;SDS011;61721;42.206;25.320;2023-05-15T10:17:06;8.73;;;4.38;;
73487;SDS011;61721;42.206;25.320;2023-05-15T10:19:44;7.93;;;5.10;;
73487;SDS011;61721;42.206;25.320;2023-05-15T10:22:22;8.10;;;4.72;;
73487;SDS011;61721;42.206;25.320;2023-05-15T10:25:08;7.05;;;4.63;;
73487;SDS011;61721;42.206;25.320;2023-05-15T10:27:52;9.35;;;4.93;;
73487;SDS011;61721;42.206;25.320;2023-05-15T10:30:31;7.57;;;4.57;;
73487;SDS011;61721;42.206;25.320;2023-05-15T10:33:07;6.38;;;4.50;;
73487;SDS011;61721;42.206;25.320;2023-05-15T10:35:46;7.65;;;4.63;;
73487;SDS011;61721;42.206;25.320;2023-05-15T10:38:24;6.43;;;4.45;;
73487;SDS011;61721;42.206;25.320;2023-05-15T10:41:02;7.43;;;4.53;;
73487;SDS011;61721;42.206;25.320;2023-05-15T10:43:40;9.65;;;4.45;;
73487;SDS011;61721;42.206;25.320;2023-05-15T10:46:19;8.27;;;4.47;;
73487;SDS011;61721;42.206;25.320;2023-05-15T10:48:56;6.20;;;3.72;;
73487;SDS011;61721;42.206;25.320;2023-05-15T10:51:33;6.90;;;3.90;;
73487;SDS011;61721;42.206;25.320;2023-05-15T10:54:12;8.30;;;4.10;;
73487;SDS011;61721;42.206;25.320;2023-05-15T10:56:49;10.57;;;4.38;;
73487;SDS011;61721;42.206;25.320;2023-05-15T10:59:31;5.90;;;4.07;;
73487;SDS011;61721;42.206;25.320;2023-05-15T11:02:21;6.13;;;4.28;;
73487;SDS011;61721;42.206;25.320;2023-05-15T11:04:58;7.47;;;4.35;;
73487;SDS011;61721;42.206;25.320;2023-05-15T11:07:35;6.65;;;4.35;;
73487;SDS011;61721;42.206;25.320;2023-05-15T11:13:13;8.40;;;4.38;;
73487;SDS011;61721;42.206;25.320;2023-05-15T11:15:49;6.65;;;3.80;;
73487;SDS011;61721;42.206;25.320;2023-05-15T11:21:06;6.53;;;3.85;;
73487;SDS011;61721;42.206;25.320;2023-05-15T11:23:42;7.68;;;3.97;;
73487;SDS011;61721;42.206;25.320;2023-05-15T11:26:31;6.38;;;3.92;;
73487;SDS011;61721;42.206;25.320;2023-05-15T11:29:16;6.00;;;3.60;;
73487;SDS011;61721;42.206;25.320;2023-05-15T11:31:52;7.32;;;4.13;;
73487;SDS011;61721;42.206;25.320;2023-05-15T11:34:31;9.57;;;3.80;;
73487;SDS011;61721;42.206;25.320;2023-05-15T11:37:08;6.00;;;3.50;;
73487;SDS011;61721;42.206;25.320;2023-05-15T11:39:52;6.80;;;3.53;;
73487;SDS011;61721;42.206;25.320;2023-05-15T11:42:27;8.75;;;4.22;;
73487;SDS011;61721;42.206;25.320;2023-05-15T11:45:04;6.60;;;3.20;;
73487;SDS011;61721;42.206;25.320;2023-05-15T11:47:43;5.32;;;3.40;;
73487;SDS011;61721;42.206;25.320;2023-05-15T11:50:22;9.35;;;3.90;;
73487;SDS011;61721;42.206;25.320;2023-05-15T11:52:58;7.30;;;3.30;;
73487;SDS011;61721;42.206;25.320;2023-05-15T11:55:38;6.68;;;3.75;;
73487;SDS011;61721;42.206;25.320;2023-05-15T11:58:16;8.25;;;3.55;;
73487;SDS011;61721;42.206;25.320;2023-05-15T12:00:53;6.22;;;3.78;;
73487;SDS011;61721;42.206;25.320;2023-05-15T12:03:31;5.90;;;3.10;;
73487;SDS011;61721;42.206;25.320;2023-05-15T12:06:10;5.72;;;3.15;;
73487;SDS011;61721;42.206;25.320;2023-05-15T12:08:49;6.15;;;3.70;;
73487;SDS011;61721;42.206;25.320;2023-05-15T12:11:27;4.50;;;2.92;;
73487;SDS011;61721;42.206;25.320;2023-05-15T12:14:03;7.18;;;3.33;;
73487;SDS011;61721;42.206;25.320;2023-05-15T12:19:15;5.45;;;3.20;;
73487;SDS011;61721;42.206;25.320;2023-05-15T12:24:29;6.03;;;3.00;;
73487;SDS011;61721;42.206;25.320;2023-05-15T12:27:07;5.75;;;3.45;;
73487;SDS011;61721;42.206;25.320;2023-05-15T12:29:44;7.05;;;2.72;;
73487;SDS011;61721;42.206;25.320;2023-05-15T12:32:20;6.35;;;3.42;;
73487;SDS011;61721;42.206;25.320;2023-05-15T12:34:57;9.55;;;3.33;;
73487;SDS011;61721;42.206;25.320;2023-05-15T12:37:37;5.70;;;3.10;;
73487;SDS011;61721;42.206;25.320;2023-05-15T12:40:13;7.95;;;3.70;;
73487;SDS011;61721;42.206;25.320;2023-05-15T12:45:27;7.25;;;3.72;;
73487;SDS011;61721;42.206;25.320;2023-05-15T12:48:04;9.95;;;3.53;;
73487;SDS011;61721;42.206;25.320;2023-05-15T12:50:42;7.75;;;3.40;;
73487;SDS011;61721;42.206;25.320;2023-05-15T12:53:21;7.88;;;4.10;;
73487;SDS011;61721;42.206;25.320;2023-05-15T12:55:59;7.68;;;3.80;;
73487;SDS011;61721;42.206;25.320;2023-05-15T12:58:35;6.07;;;3.67;;
73487;SDS011;61721;42.206;25.320;2023-05-15T13:01:11;9.43;;;3.90;;
73487;SDS011;61721;42.206;25.320;2023-05-15T13:06:24;5.40;;;3.47;;
73487;SDS011;61721;42.206;25.320;2023-05-15T13:09:02;8.10;;;3.30;;
73487;SDS011;61721;42.206;25.320;2023-05-15T13:11:42;6.75;;;3.42;;
73487;SDS011;61721;42.206;25.320;2023-05-15T13:14:19;8.60;;;3.15;;
73487;SDS011;61721;42.206;25.320;2023-05-15T13:16:59;6.43;;;3.47;;
73487;SDS011;61721;42.206;25.320;2023-05-15T13:19:37;9.10;;;3.10;;
73487;SDS011;61721;42.206;25.320;2023-05-15T13:22:14;7.50;;;3.42;;
73487;SDS011;61721;42.206;25.320;2023-05-15T13:24:53;6.78;;;3.38;;
73487;SDS011;61721;42.206;25.320;2023-05-15T13:27:31;7.07;;;3.72;;
73487;SDS011;61721;42.206;25.320;2023-05-15T13:30:07;6.93;;;3.67;;
73487;SDS011;61721;42.206;25.320;2023-05-15T13:32:44;11.20;;;3.70;;
73487;SDS011;61721;42.206;25.320;2023-05-15T13:35:21;6.25;;;3.38;;
73487;SDS011;61721;42.206;25.320;2023-05-15T13:37:57;7.68;;;3.25;;
73487;SDS011;61721;42.206;25.320;2023-05-15T13:40:35;7.70;;;3.33;;
73487;SDS011;61721;42.206;25.320;2023-05-15T13:43:14;8.50;;;3.30;;
73487;SDS011;61721;42.206;25.320;2023-05-15T13:45:50;8.70;;;3.53;;
73487;SDS011;61721;42.206;25.320;2023-05-15T13:51:01;5.25;;;3.10;;
73487;SDS011;61721;42.206;25.320;2023-05-15T13:53:38;6.22;;;3.60;;
73487;SDS011;61721;42.206;25.320;2023-05-15T13:56:16;6.80;;;3.55;;
73487;SDS011;61721;42.206;25.320;2023-05-15T13:58:53;7.03;;;3.60;;
73487;SDS011;61721;42.206;25.320;2023-05-15T14:01:36;7.10;;;3.40;;
73487;SDS011;61721;42.206;25.320;2023-05-15T14:04:12;6.53;;;3.75;;
73487;SDS011;61721;42.206;25.320;2023-05-15T14:06:48;7.15;;;3.53;;
73487;SDS011;61721;42.206;25.320;2023-05-15T14:12:01;8.77;;;3.50;;
73487;SDS011;61721;42.206;25.320;2023-05-15T14:14:38;5.63;;;3.30;;
73487;SDS011;61721;42.206;25.320;2023-05-15T14:17:15;6.55;;;3.40;;
73487;SDS011;61721;42.206;25.320;2023-05-15T14:19:52;6.75;;;3.88;;
73487;SDS011;61721;42.206;25.320;2023-05-15T14:22:28;6.68;;;3.33;;
73487;SDS011;61721;42.206;25.320;2023-05-15T14:25:05;8.10;;;3.47;;
73487;SDS011;61721;42.206;25.320;2023-05-15T14:27:48;7.53;;;3.13;;
73487;SDS011;61721;42.206;25.320;2023-05-15T14:30:24;7.03;;;3.53;;
73487;SDS011;61721;42.206;25.320;2023-05-15T14:35:35;9.68;;;3.67;;
73487;SDS011;61721;42.206;25.320;2023-05-15T14:40:46;9.63;;;3.55;;
73487;SDS011;61721;42.206;25.320;2023-05-15T14:46:01;5.97;;;3.38;;
73487;SDS011;61721;42.206;25.320;2023-05-15T14:51:13;6.05;;;3.40;;
73487;SDS011;61721;42.206;25.320;2023-05-15T14:56:37;8.45;;;3.30;;
73487;SDS011;61721;42.206;25.320;2023-05-15T14:59:16;6.47;;;3.40;;
73487;SDS011;61721;42.206;25.320;2023-05-15T15:01:52;7.75;;;3.22;;
73487;SDS011;61721;42.206;25.320;2023-05-15T15:04:35;8.02;;;3.60;;
73487;SDS011;61721;42.206;25.320;2023-05-15T15:07:13;9.70;;;3.15;;
73487;SDS011;61721;42.206;25.320;2023-05-15T15:12:26;14.52;;;3.45;;
73487;SDS011;61721;42.206;25.320;2023-05-15T15:15:05;8.63;;;3.75;;
73487;SDS011;61721;42.206;25.320;2023-05-15T15:17:42;9.35;;;3.72;;
73487;SDS011;61721;42.206;25.320;2023-05-15T15:20:28;5.13;;;3.55;;
73487;SDS011;61721;42.206;25.320;2023-05-15T15:23:05;6.97;;;3.92;;
73487;SDS011;61721;42.206;25.320;2023-05-15T15:25:41;6.45;;;3.55;;
73487;SDS011;61721;42.206;25.320;2023-05-15T15:28:18;7.65;;;4.00;;
73487;SDS011;61721;42.206;25.320;2023-05-15T15:30:56;8.23;;;3.63;;
73487;SDS011;61721;42.206;25.320;2023-05-15T15:33:36;7.93;;;3.95;;
73487;SDS011;61721;42.206;25.320;2023-05-15T15:36:13;6.30;;;4.20;;
73487;SDS011;61721;42.206;25.320;2023-05-15T15:38:50;5.82;;;3.75;;
73487;SDS011;61721;42.206;25.320;2023-05-15T15:41:26;6.57;;;4.30;;
73487;SDS011;61721;42.206;25.320;2023-05-15T15:44:05;8.20;;;3.97;;
73487;SDS011;61721;42.206;25.320;2023-05-15T15:46:43;6.18;;;3.88;;
73487;SDS011;61721;42.206;25.320;2023-05-15T15:49:20;9.00;;;4.13;;
73487;SDS011;61721;42.206;25.320;2023-05-15T15:52:00;6.80;;;3.47;;
73487;SDS011;61721;42.206;25.320;2023-05-15T15:54:36;6.53;;;3.55;;
73487;SDS011;61721;42.206;25.320;2023-05-15T15:57:18;8.15;;;3.65;;
73487;SDS011;61721;42.206;25.320;2023-05-15T15:59:55;6.55;;;3.83;;
73487;SDS011;61721;42.206;25.320;2023-05-15T16:05:17;5.75;;;3.60;;
73487;SDS011;61721;42.206;25.320;2023-05-15T16:07:53;5.93;;;3.63;;
73487;SDS011;61721;42.206;25.320;2023-05-15T16:10:29;7.30;;;4.10;;
73487;SDS011;61721;42.206;25.320;2023-05-15T16:13:05;9.68;;;3.90;;
73487;SDS011;61721;42.206;25.320;2023-05-15T16:15:41;6.35;;;3.42;;
73487;SDS011;61721;42.206;25.320;2023-05-15T16:20:55;6.95;;;3.58;;
73487;SDS011;61721;42.206;25.320;2023-05-15T16:23:32;10.05;;;3.90;;
73487;SDS011;61721;42.206;25.320;2023-05-15T16:26:08;8.70;;;4.05;;
73487;SDS011;61721;42.206;25.320;2023-05-15T16:28:44;7.22;;;3.88;;
73487;SDS011;61721;42.206;25.320;2023-05-15T16:31:20;11.35;;;3.53;;
73487;SDS011;61721;42.206;25.320;2023-05-15T16:33:59;11.18;;;3.67;;
73487;SDS011;61721;42.206;25.320;2023-05-15T16:36:35;10.23;;;3.63;;
73487;SDS011;61721;42.206;25.320;2023-05-15T16:39:11;8.93;;;3.67;;
73487;SDS011;61721;42.206;25.320;2023-05-15T16:41:47;13.18;;;3.78;;